aviador You're here:

PHHI Decoded Metar

WHEELER AFB. in HI, USA OAHU ISL.
Report Time2017-05-26 10:58:00
UTC Time2017-05-26 11:17:13
Flight Rules vfr VFR
Wind300° at 05 kt
W.Decomp.*RWY 24: 3.3 kt HW 3.8 kt RCW
W.Rank300° ranks 9
Current wind is above 300° avg. (4.0)
Visibility9999 m
Phenomena:N/A
Clouds:N/A
Expected CloudBase > 800 ft AGL from Temp-Dew spread
CeilingNone
Temp18°C (ISA +5)
Dew Point16°C (88% RH)
QNH1017 hPa
Density Alt1,496 ft
Elevation837 ft
Report Wrong Elevation
Raw Report
PHHI 261058Z AUTO 30005KT 10SM CLR 18/16 A3004 RMK AO2 SLP163
T01780162 $=

Extra information for PHHI:More info

Metar Taf Metar & Taf Last 4 Metars F.Rules Stats Wind Profile Meteogram Temp Stats Airport Information Weather charts Add Link Nearby VenuesMetar ALERT Operation Metar Decoded Social comments